sensor_id;sensor_type;location;lat;lon;timestamp;P1;durP1;ratioP1;P2;durP2;ratioP2
84933;SDS011;75195;56.858;41.422;2024-03-08T00:01:50;2.60;;;1.20;;
84933;SDS011;75195;56.858;41.422;2024-03-08T00:04:16;2.53;;;1.33;;
84933;SDS011;75195;56.858;41.422;2024-03-08T00:06:43;2.83;;;1.50;;
84933;SDS011;75195;56.858;41.422;2024-03-08T00:09:12;2.78;;;1.40;;
84933;SDS011;75195;56.858;41.422;2024-03-08T00:11:38;2.60;;;1.50;;
84933;SDS011;75195;56.858;41.422;2024-03-08T00:14:05;2.22;;;1.30;;
84933;SDS011;75195;56.858;41.422;2024-03-08T00:16:32;2.42;;;1.55;;
84933;SDS011;75195;56.858;41.422;2024-03-08T00:18:59;2.20;;;1.40;;
84933;SDS011;75195;56.858;41.422;2024-03-08T00:21:26;4.03;;;1.67;;
84933;SDS011;75195;56.858;41.422;2024-03-08T00:23:55;4.10;;;1.85;;
84933;SDS011;75195;56.858;41.422;2024-03-08T00:26:21;3.58;;;1.55;;
84933;SDS011;75195;56.858;41.422;2024-03-08T00:28:48;3.83;;;2.10;;
84933;SDS011;75195;56.858;41.422;2024-03-08T00:31:15;6.10;;;1.75;;
84933;SDS011;75195;56.858;41.422;2024-03-08T00:33:44;6.28;;;1.65;;
84933;SDS011;75195;56.858;41.422;2024-03-08T00:36:11;4.50;;;1.92;;
84933;SDS011;75195;56.858;41.422;2024-03-08T00:38:37;3.78;;;1.77;;
84933;SDS011;75195;56.858;41.422;2024-03-08T00:41:04;3.33;;;1.65;;
84933;SDS011;75195;56.858;41.422;2024-03-08T00:43:30;4.30;;;1.80;;
84933;SDS011;75195;56.858;41.422;2024-03-08T00:45:57;2.67;;;1.55;;
84933;SDS011;75195;56.858;41.422;2024-03-08T00:48:24;3.50;;;1.70;;
84933;SDS011;75195;56.858;41.422;2024-03-08T00:50:50;4.13;;;1.75;;
84933;SDS011;75195;56.858;41.422;2024-03-08T00:53:17;3.30;;;1.83;;
84933;SDS011;75195;56.858;41.422;2024-03-08T00:55:43;2.78;;;1.45;;
84933;SDS011;75195;56.858;41.422;2024-03-08T00:58:12;2.55;;;1.40;;
84933;SDS011;75195;56.858;41.422;2024-03-08T01:00:39;4.47;;;1.65;;
84933;SDS011;75195;56.858;41.422;2024-03-08T01:03:05;6.13;;;1.63;;
84933;SDS011;75195;56.858;41.422;2024-03-08T01:05:33;3.10;;;1.60;;
84933;SDS011;75195;56.858;41.422;2024-03-08T01:08:01;7.32;;;1.75;;
84933;SDS011;75195;56.858;41.422;2024-03-08T01:10:29;3.00;;;1.33;;
84933;SDS011;75195;56.858;41.422;2024-03-08T01:12:55;3.05;;;1.33;;
84933;SDS011;75195;56.858;41.422;2024-03-08T01:15:23;3.38;;;2.42;;
84933;SDS011;75195;56.858;41.422;2024-03-08T01:17:49;6.93;;;2.10;;
84933;SDS011;75195;56.858;41.422;2024-03-08T01:20:16;4.53;;;1.30;;
84933;SDS011;75195;56.858;41.422;2024-03-08T01:22:43;2.90;;;1.25;;
84933;SDS011;75195;56.858;41.422;2024-03-08T01:25:10;3.95;;;1.58;;
84933;SDS011;75195;56.858;41.422;2024-03-08T01:27:36;1.90;;;1.10;;
84933;SDS011;75195;56.858;41.422;2024-03-08T01:30:03;4.25;;;1.50;;
84933;SDS011;75195;56.858;41.422;2024-03-08T01:32:30;3.00;;;1.08;;
84933;SDS011;75195;56.858;41.422;2024-03-08T01:34:57;2.95;;;1.45;;
84933;SDS011;75195;56.858;41.422;2024-03-08T01:37:23;2.47;;;1.40;;
84933;SDS011;75195;56.858;41.422;2024-03-08T01:39:50;2.13;;;1.38;;
84933;SDS011;75195;56.858;41.422;2024-03-08T01:42:16;2.10;;;1.10;;
84933;SDS011;75195;56.858;41.422;2024-03-08T01:44:43;2.58;;;1.25;;
84933;SDS011;75195;56.858;41.422;2024-03-08T01:47:10;3.05;;;1.17;;
84933;SDS011;75195;56.858;41.422;2024-03-08T01:49:37;2.97;;;1.23;;
84933;SDS011;75195;56.858;41.422;2024-03-08T01:52:03;2.33;;;1.52;;
84933;SDS011;75195;56.858;41.422;2024-03-08T01:54:30;3.53;;;1.83;;
84933;SDS011;75195;56.858;41.422;2024-03-08T01:56:57;2.25;;;1.23;;
84933;SDS011;75195;56.858;41.422;2024-03-08T01:59:25;2.33;;;1.40;;
84933;SDS011;75195;56.858;41.422;2024-03-08T02:01:54;3.20;;;1.17;;
84933;SDS011;75195;56.858;41.422;2024-03-08T02:04:21;1.67;;;1.10;;
84933;SDS011;75195;56.858;41.422;2024-03-08T02:06:48;3.08;;;1.55;;
84933;SDS011;75195;56.858;41.422;2024-03-08T02:09:14;4.15;;;1.48;;
84933;SDS011;75195;56.858;41.422;2024-03-08T02:11:41;5.13;;;2.00;;
84933;SDS011;75195;56.858;41.422;2024-03-08T02:14:07;4.07;;;1.77;;
84933;SDS011;75195;56.858;41.422;2024-03-08T02:16:34;3.20;;;1.77;;
84933;SDS011;75195;56.858;41.422;2024-03-08T02:19:01;4.13;;;2.00;;
84933;SDS011;75195;56.858;41.422;2024-03-08T02:21:27;2.70;;;1.52;;
84933;SDS011;75195;56.858;41.422;2024-03-08T02:23:55;3.10;;;1.40;;
84933;SDS011;75195;56.858;41.422;2024-03-08T02:26:21;2.00;;;1.15;;
84933;SDS011;75195;56.858;41.422;2024-03-08T02:28:48;4.15;;;1.70;;
84933;SDS011;75195;56.858;41.422;2024-03-08T02:31:15;4.18;;;1.80;;
84933;SDS011;75195;56.858;41.422;2024-03-08T02:33:42;2.90;;;1.55;;
84933;SDS011;75195;56.858;41.422;2024-03-08T02:36:08;3.55;;;2.00;;
84933;SDS011;75195;56.858;41.422;2024-03-08T02:38:35;4.32;;;1.65;;
84933;SDS011;75195;56.858;41.422;2024-03-08T02:41:01;5.32;;;1.95;;
84933;SDS011;75195;56.858;41.422;2024-03-08T02:43:29;4.20;;;2.10;;
84933;SDS011;75195;56.858;41.422;2024-03-08T02:45:55;5.05;;;1.70;;
84933;SDS011;75195;56.858;41.422;2024-03-08T02:48:22;5.80;;;2.55;;
84933;SDS011;75195;56.858;41.422;2024-03-08T02:50:48;3.47;;;1.80;;
84933;SDS011;75195;56.858;41.422;2024-03-08T02:53:16;4.82;;;1.77;;
84933;SDS011;75195;56.858;41.422;2024-03-08T02:55:44;4.68;;;2.28;;
84933;SDS011;75195;56.858;41.422;2024-03-08T02:58:11;3.55;;;1.80;;
84933;SDS011;75195;56.858;41.422;2024-03-08T03:00:38;3.90;;;2.10;;
84933;SDS011;75195;56.858;41.422;2024-03-08T03:03:05;4.93;;;1.98;;
84933;SDS011;75195;56.858;41.422;2024-03-08T03:05:32;4.55;;;1.85;;
84933;SDS011;75195;56.858;41.422;2024-03-08T03:08:01;4.30;;;2.05;;
84933;SDS011;75195;56.858;41.422;2024-03-08T03:10:35;6.07;;;2.00;;
84933;SDS011;75195;56.858;41.422;2024-03-08T03:13:02;6.00;;;2.22;;
84933;SDS011;75195;56.858;41.422;2024-03-08T03:15:30;5.00;;;1.80;;
84933;SDS011;75195;56.858;41.422;2024-03-08T03:17:56;3.80;;;2.28;;
84933;SDS011;75195;56.858;41.422;2024-03-08T03:20:23;3.67;;;1.83;;
84933;SDS011;75195;56.858;41.422;2024-03-08T03:22:52;2.88;;;1.50;;
84933;SDS011;75195;56.858;41.422;2024-03-08T03:25:19;4.55;;;2.45;;
84933;SDS011;75195;56.858;41.422;2024-03-08T03:27:55;9.02;;;2.28;;
84933;SDS011;75195;56.858;41.422;2024-03-08T03:30:23;3.20;;;1.73;;
84933;SDS011;75195;56.858;41.422;2024-03-08T03:32:53;4.60;;;1.90;;
84933;SDS011;75195;56.858;41.422;2024-03-08T03:35:26;4.88;;;2.10;;
84933;SDS011;75195;56.858;41.422;2024-03-08T03:37:56;4.72;;;2.05;;
84933;SDS011;75195;56.858;41.422;2024-03-08T03:43:03;4.45;;;2.17;;
84933;SDS011;75195;56.858;41.422;2024-03-08T03:45:29;5.30;;;2.38;;
84933;SDS011;75195;56.858;41.422;2024-03-08T03:47:59;6.07;;;3.08;;
84933;SDS011;75195;56.858;41.422;2024-03-08T03:50:26;3.75;;;1.80;;
84933;SDS011;75195;56.858;41.422;2024-03-08T03:52:52;5.63;;;2.13;;
84933;SDS011;75195;56.858;41.422;2024-03-08T03:55:19;2.95;;;1.67;;
84933;SDS011;75195;56.858;41.422;2024-03-08T03:57:45;2.70;;;1.63;;
84933;SDS011;75195;56.858;41.422;2024-03-08T04:00:12;5.65;;;2.15;;
84933;SDS011;75195;56.858;41.422;2024-03-08T04:02:41;3.22;;;1.63;;
84933;SDS011;75195;56.858;41.422;2024-03-08T04:05:09;6.28;;;1.63;;
84933;SDS011;75195;56.858;41.422;2024-03-08T04:07:36;4.40;;;2.00;;
84933;SDS011;75195;56.858;41.422;2024-03-08T04:10:04;3.50;;;1.67;;
84933;SDS011;75195;56.858;41.422;2024-03-08T04:12:35;3.50;;;1.80;;
84933;SDS011;75195;56.858;41.422;2024-03-08T04:15:02;4.00;;;2.00;;
84933;SDS011;75195;56.858;41.422;2024-03-08T04:17:34;4.25;;;1.90;;
84933;SDS011;75195;56.858;41.422;2024-03-08T04:20:03;3.65;;;1.90;;
84933;SDS011;75195;56.858;41.422;2024-03-08T04:22:36;3.72;;;1.90;;
84933;SDS011;75195;56.858;41.422;2024-03-08T04:25:03;4.80;;;2.13;;
84933;SDS011;75195;56.858;41.422;2024-03-08T04:27:30;3.97;;;1.88;;
84933;SDS011;75195;56.858;41.422;2024-03-08T04:29:58;4.35;;;2.42;;
84933;SDS011;75195;56.858;41.422;2024-03-08T04:32:25;6.53;;;2.17;;
84933;SDS011;75195;56.858;41.422;2024-03-08T04:34:51;5.38;;;2.03;;
84933;SDS011;75195;56.858;41.422;2024-03-08T04:37:17;3.58;;;1.75;;
84933;SDS011;75195;56.858;41.422;2024-03-08T04:39:51;4.93;;;2.20;;
84933;SDS011;75195;56.858;41.422;2024-03-08T04:42:17;3.83;;;1.85;;
84933;SDS011;75195;56.858;41.422;2024-03-08T04:44:44;3.85;;;1.80;;
84933;SDS011;75195;56.858;41.422;2024-03-08T04:47:10;5.60;;;1.90;;
84933;SDS011;75195;56.858;41.422;2024-03-08T04:49:37;3.70;;;2.00;;
84933;SDS011;75195;56.858;41.422;2024-03-08T04:52:03;5.03;;;2.33;;
84933;SDS011;75195;56.858;41.422;2024-03-08T04:54:31;3.55;;;2.00;;
84933;SDS011;75195;56.858;41.422;2024-03-08T04:56:57;4.10;;;2.20;;
84933;SDS011;75195;56.858;41.422;2024-03-08T04:59:26;4.40;;;2.17;;
84933;SDS011;75195;56.858;41.422;2024-03-08T05:01:53;4.07;;;2.10;;
84933;SDS011;75195;56.858;41.422;2024-03-08T05:04:20;5.72;;;2.28;;
84933;SDS011;75195;56.858;41.422;2024-03-08T05:06:47;4.50;;;2.15;;
84933;SDS011;75195;56.858;41.422;2024-03-08T05:09:14;4.57;;;2.22;;
84933;SDS011;75195;56.858;41.422;2024-03-08T05:11:45;5.55;;;2.05;;
84933;SDS011;75195;56.858;41.422;2024-03-08T05:14:13;5.75;;;2.30;;
84933;SDS011;75195;56.858;41.422;2024-03-08T05:16:43;3.03;;;1.67;;
84933;SDS011;75195;56.858;41.422;2024-03-08T05:19:14;3.40;;;1.73;;
84933;SDS011;75195;56.858;41.422;2024-03-08T05:21:43;3.08;;;1.75;;
84933;SDS011;75195;56.858;41.422;2024-03-08T05:24:10;4.85;;;2.13;;
84933;SDS011;75195;56.858;41.422;2024-03-08T05:26:36;5.28;;;2.20;;
84933;SDS011;75195;56.858;41.422;2024-03-08T05:29:03;4.57;;;2.05;;
84933;SDS011;75195;56.858;41.422;2024-03-08T05:31:30;3.85;;;1.98;;
84933;SDS011;75195;56.858;41.422;2024-03-08T05:34:10;6.07;;;2.38;;
84933;SDS011;75195;56.858;41.422;2024-03-08T05:36:36;4.90;;;1.80;;
84933;SDS011;75195;56.858;41.422;2024-03-08T05:39:03;4.03;;;2.00;;
84933;SDS011;75195;56.858;41.422;2024-03-08T05:41:33;3.55;;;1.63;;
84933;SDS011;75195;56.858;41.422;2024-03-08T05:43:59;4.47;;;1.90;;
84933;SDS011;75195;56.858;41.422;2024-03-08T05:46:25;4.18;;;2.28;;
84933;SDS011;75195;56.858;41.422;2024-03-08T05:48:52;4.78;;;2.10;;
84933;SDS011;75195;56.858;41.422;2024-03-08T05:51:20;4.47;;;1.83;;
84933;SDS011;75195;56.858;41.422;2024-03-08T05:53:47;3.38;;;1.50;;
84933;SDS011;75195;56.858;41.422;2024-03-08T05:56:13;5.95;;;2.50;;
84933;SDS011;75195;56.858;41.422;2024-03-08T05:58:40;4.07;;;1.90;;
84933;SDS011;75195;56.858;41.422;2024-03-08T06:01:06;4.07;;;2.28;;
84933;SDS011;75195;56.858;41.422;2024-03-08T06:03:34;6.95;;;2.22;;
84933;SDS011;75195;56.858;41.422;2024-03-08T06:06:00;3.53;;;1.90;;
84933;SDS011;75195;56.858;41.422;2024-03-08T06:08:26;3.22;;;1.70;;
84933;SDS011;75195;56.858;41.422;2024-03-08T06:10:56;3.88;;;2.00;;
84933;SDS011;75195;56.858;41.422;2024-03-08T06:13:24;5.70;;;2.13;;
84933;SDS011;75195;56.858;41.422;2024-03-08T06:15:51;3.63;;;2.20;;
84933;SDS011;75195;56.858;41.422;2024-03-08T06:18:17;5.57;;;2.28;;
84933;SDS011;75195;56.858;41.422;2024-03-08T06:20:43;5.35;;;2.25;;
84933;SDS011;75195;56.858;41.422;2024-03-08T06:23:10;4.13;;;2.15;;
84933;SDS011;75195;56.858;41.422;2024-03-08T06:25:36;3.47;;;1.83;;
84933;SDS011;75195;56.858;41.422;2024-03-08T06:28:03;4.38;;;2.17;;
84933;SDS011;75195;56.858;41.422;2024-03-08T06:30:30;2.85;;;1.60;;
84933;SDS011;75195;56.858;41.422;2024-03-08T06:32:57;3.83;;;2.08;;
84933;SDS011;75195;56.858;41.422;2024-03-08T06:35:23;3.90;;;2.22;;
84933;SDS011;75195;56.858;41.422;2024-03-08T06:37:50;5.70;;;2.22;;
84933;SDS011;75195;56.858;41.422;2024-03-08T06:40:16;3.95;;;2.47;;
84933;SDS011;75195;56.858;41.422;2024-03-08T06:42:44;10.00;;;2.45;;
84933;SDS011;75195;56.858;41.422;2024-03-08T06:45:11;3.63;;;1.92;;
84933;SDS011;75195;56.858;41.422;2024-03-08T06:47:38;3.92;;;2.00;;
84933;SDS011;75195;56.858;41.422;2024-03-08T06:50:07;8.65;;;3.67;;
84933;SDS011;75195;56.858;41.422;2024-03-08T06:52:34;6.03;;;2.95;;
84933;SDS011;75195;56.858;41.422;2024-03-08T06:55:00;4.55;;;2.95;;
84933;SDS011;75195;56.858;41.422;2024-03-08T06:57:28;5.43;;;2.50;;
84933;SDS011;75195;56.858;41.422;2024-03-08T06:59:55;6.00;;;2.85;;
84933;SDS011;75195;56.858;41.422;2024-03-08T07:02:23;5.25;;;2.30;;
84933;SDS011;75195;56.858;41.422;2024-03-08T07:04:53;4.43;;;2.10;;
84933;SDS011;75195;56.858;41.422;2024-03-08T07:07:20;6.82;;;2.47;;
84933;SDS011;75195;56.858;41.422;2024-03-08T07:09:46;5.10;;;2.65;;
84933;SDS011;75195;56.858;41.422;2024-03-08T07:12:12;6.88;;;3.58;;
84933;SDS011;75195;56.858;41.422;2024-03-08T07:14:42;5.75;;;3.00;;
84933;SDS011;75195;56.858;41.422;2024-03-08T07:17:11;5.70;;;2.97;;
84933;SDS011;75195;56.858;41.422;2024-03-08T07:19:38;5.00;;;2.47;;
84933;SDS011;75195;56.858;41.422;2024-03-08T07:22:05;7.40;;;3.33;;
84933;SDS011;75195;56.858;41.422;2024-03-08T07:24:35;4.28;;;2.30;;
84933;SDS011;75195;56.858;41.422;2024-03-08T07:27:20;3.60;;;2.72;;
84933;SDS011;75195;56.858;41.422;2024-03-08T07:29:46;6.43;;;2.70;;
84933;SDS011;75195;56.858;41.422;2024-03-08T07:32:13;5.10;;;2.35;;
84933;SDS011;75195;56.858;41.422;2024-03-08T07:34:45;5.32;;;2.85;;
84933;SDS011;75195;56.858;41.422;2024-03-08T07:37:13;4.40;;;2.50;;
84933;SDS011;75195;56.858;41.422;2024-03-08T07:39:40;4.80;;;2.50;;
84933;SDS011;75195;56.858;41.422;2024-03-08T07:42:06;5.78;;;2.35;;
84933;SDS011;75195;56.858;41.422;2024-03-08T07:44:33;4.00;;;2.50;;
84933;SDS011;75195;56.858;41.422;2024-03-08T07:46:59;5.38;;;2.42;;
84933;SDS011;75195;56.858;41.422;2024-03-08T07:49:25;10.50;;;5.75;;
84933;SDS011;75195;56.858;41.422;2024-03-08T07:51:51;6.65;;;3.42;;
84933;SDS011;75195;56.858;41.422;2024-03-08T07:54:18;4.30;;;2.63;;
84933;SDS011;75195;56.858;41.422;2024-03-08T07:56:45;4.43;;;2.22;;
84933;SDS011;75195;56.858;41.422;2024-03-08T07:59:12;5.15;;;2.35;;
84933;SDS011;75195;56.858;41.422;2024-03-08T08:01:39;7.15;;;2.47;;
84933;SDS011;75195;56.858;41.422;2024-03-08T08:04:05;5.45;;;2.40;;
84933;SDS011;75195;56.858;41.422;2024-03-08T08:06:31;5.38;;;2.38;;
84933;SDS011;75195;56.858;41.422;2024-03-08T08:08:59;4.60;;;2.35;;
84933;SDS011;75195;56.858;41.422;2024-03-08T08:11:29;5.05;;;2.58;;
84933;SDS011;75195;56.858;41.422;2024-03-08T08:13:56;4.32;;;2.70;;
84933;SDS011;75195;56.858;41.422;2024-03-08T08:16:23;4.43;;;2.50;;
84933;SDS011;75195;56.858;41.422;2024-03-08T08:18:50;5.85;;;2.78;;
84933;SDS011;75195;56.858;41.422;2024-03-08T08:21:18;4.38;;;2.15;;
84933;SDS011;75195;56.858;41.422;2024-03-08T08:23:45;4.88;;;2.55;;
84933;SDS011;75195;56.858;41.422;2024-03-08T08:26:12;10.52;;;4.95;;
84933;SDS011;75195;56.858;41.422;2024-03-08T08:28:39;13.20;;;5.65;;
84933;SDS011;75195;56.858;41.422;2024-03-08T08:31:06;12.30;;;5.53;;
84933;SDS011;75195;56.858;41.422;2024-03-08T08:33:34;14.05;;;6.20;;
84933;SDS011;75195;56.858;41.422;2024-03-08T08:36:01;8.50;;;5.22;;
84933;SDS011;75195;56.858;41.422;2024-03-08T08:38:27;9.57;;;3.92;;
84933;SDS011;75195;56.858;41.422;2024-03-08T08:40:54;7.13;;;2.70;;
84933;SDS011;75195;56.858;41.422;2024-03-08T08:43:20;6.32;;;2.95;;
84933;SDS011;75195;56.858;41.422;2024-03-08T08:45:50;5.80;;;2.65;;
84933;SDS011;75195;56.858;41.422;2024-03-08T08:48:20;7.00;;;3.28;;
84933;SDS011;75195;56.858;41.422;2024-03-08T08:50:47;6.72;;;2.78;;
84933;SDS011;75195;56.858;41.422;2024-03-08T08:53:13;5.07;;;2.58;;
84933;SDS011;75195;56.858;41.422;2024-03-08T08:55:40;7.68;;;2.67;;
84933;SDS011;75195;56.858;41.422;2024-03-08T08:58:06;7.55;;;3.15;;
84933;SDS011;75195;56.858;41.422;2024-03-08T09:00:33;4.45;;;2.33;;
84933;SDS011;75195;56.858;41.422;2024-03-08T09:03:00;3.80;;;2.47;;
84933;SDS011;75195;56.858;41.422;2024-03-08T09:05:28;5.60;;;2.42;;
84933;SDS011;75195;56.858;41.422;2024-03-08T09:07:54;6.65;;;2.85;;
84933;SDS011;75195;56.858;41.422;2024-03-08T09:10:21;4.30;;;2.38;;
84933;SDS011;75195;56.858;41.422;2024-03-08T09:12:47;5.40;;;2.67;;
84933;SDS011;75195;56.858;41.422;2024-03-08T09:15:14;5.78;;;2.30;;
84933;SDS011;75195;56.858;41.422;2024-03-08T09:17:41;5.40;;;2.00;;
84933;SDS011;75195;56.858;41.422;2024-03-08T09:20:10;4.88;;;2.53;;
84933;SDS011;75195;56.858;41.422;2024-03-08T09:22:44;6.20;;;2.28;;
84933;SDS011;75195;56.858;41.422;2024-03-08T09:25:11;3.58;;;2.33;;
84933;SDS011;75195;56.858;41.422;2024-03-08T09:27:38;3.40;;;2.10;;
84933;SDS011;75195;56.858;41.422;2024-03-08T09:30:05;5.10;;;2.13;;
84933;SDS011;75195;56.858;41.422;2024-03-08T09:32:33;4.50;;;2.40;;
84933;SDS011;75195;56.858;41.422;2024-03-08T09:34:59;4.32;;;2.28;;
84933;SDS011;75195;56.858;41.422;2024-03-08T09:37:27;6.00;;;2.33;;
84933;SDS011;75195;56.858;41.422;2024-03-08T09:39:53;4.20;;;2.00;;
84933;SDS011;75195;56.858;41.422;2024-03-08T09:42:19;4.75;;;1.85;;
84933;SDS011;75195;56.858;41.422;2024-03-08T09:44:46;3.67;;;1.55;;
84933;SDS011;75195;56.858;41.422;2024-03-08T09:47:13;3.78;;;2.13;;
84933;SDS011;75195;56.858;41.422;2024-03-08T09:49:40;3.05;;;1.75;;
84933;SDS011;75195;56.858;41.422;2024-03-08T09:52:07;5.28;;;1.90;;
84933;SDS011;75195;56.858;41.422;2024-03-08T09:54:34;2.20;;;1.48;;
84933;SDS011;75195;56.858;41.422;2024-03-08T09:57:01;4.60;;;2.10;;
84933;SDS011;75195;56.858;41.422;2024-03-08T09:59:30;3.70;;;1.80;;
84933;SDS011;75195;56.858;41.422;2024-03-08T10:02:02;4.10;;;2.13;;
84933;SDS011;75195;56.858;41.422;2024-03-08T10:04:29;4.28;;;1.77;;
84933;SDS011;75195;56.858;41.422;2024-03-08T10:07:00;8.13;;;3.45;;
84933;SDS011;75195;56.858;41.422;2024-03-08T10:09:27;4.25;;;1.70;;
84933;SDS011;75195;56.858;41.422;2024-03-08T10:11:57;2.47;;;1.60;;
84933;SDS011;75195;56.858;41.422;2024-03-08T10:14:26;1.95;;;1.38;;
84933;SDS011;75195;56.858;41.422;2024-03-08T10:16:53;5.22;;;1.90;;
84933;SDS011;75195;56.858;41.422;2024-03-08T10:19:20;3.28;;;1.83;;
84933;SDS011;75195;56.858;41.422;2024-03-08T10:21:48;10.05;;;4.80;;
84933;SDS011;75195;56.858;41.422;2024-03-08T10:24:15;1.88;;;1.15;;
84933;SDS011;75195;56.858;41.422;2024-03-08T10:26:42;4.50;;;1.80;;
84933;SDS011;75195;56.858;41.422;2024-03-08T10:29:10;2.75;;;1.70;;
84933;SDS011;75195;56.858;41.422;2024-03-08T10:31:44;2.53;;;1.38;;
84933;SDS011;75195;56.858;41.422;2024-03-08T10:34:11;2.20;;;1.50;;
84933;SDS011;75195;56.858;41.422;2024-03-08T10:36:37;3.95;;;1.83;;
84933;SDS011;75195;56.858;41.422;2024-03-08T10:39:08;3.75;;;1.33;;
84933;SDS011;75195;56.858;41.422;2024-03-08T10:41:50;2.63;;;1.80;;
84933;SDS011;75195;56.858;41.422;2024-03-08T10:44:31;3.58;;;1.50;;
84933;SDS011;75195;56.858;41.422;2024-03-08T10:47:10;3.58;;;1.73;;
84933;SDS011;75195;56.858;41.422;2024-03-08T10:50:24;2.85;;;1.50;;
84933;SDS011;75195;56.858;41.422;2024-03-08T10:52:52;3.88;;;1.60;;
84933;SDS011;75195;56.858;41.422;2024-03-08T10:55:19;2.80;;;1.75;;
84933;SDS011;75195;56.858;41.422;2024-03-08T10:57:48;2.67;;;1.30;;
84933;SDS011;75195;56.858;41.422;2024-03-08T11:00:15;3.63;;;1.65;;
84933;SDS011;75195;56.858;41.422;2024-03-08T11:02:53;2.00;;;1.13;;
84933;SDS011;75195;56.858;41.422;2024-03-08T11:05:36;2.03;;;1.23;;
84933;SDS011;75195;56.858;41.422;2024-03-08T11:08:16;3.25;;;1.67;;
84933;SDS011;75195;56.858;41.422;2024-03-08T11:10:53;2.92;;;1.63;;
84933;SDS011;75195;56.858;41.422;2024-03-08T11:16:07;2.00;;;1.30;;
84933;SDS011;75195;56.858;41.422;2024-03-08T11:18:35;1.88;;;1.15;;
84933;SDS011;75195;56.858;41.422;2024-03-08T11:21:12;2.25;;;1.23;;
84933;SDS011;75195;56.858;41.422;2024-03-08T11:23:40;2.20;;;1.50;;
84933;SDS011;75195;56.858;41.422;2024-03-08T11:26:19;4.75;;;1.90;;
84933;SDS011;75195;56.858;41.422;2024-03-08T11:28:46;2.40;;;1.48;;
84933;SDS011;75195;56.858;41.422;2024-03-08T11:33:48;2.65;;;1.67;;
84933;SDS011;75195;56.858;41.422;2024-03-08T11:36:22;3.50;;;2.22;;
84933;SDS011;75195;56.858;41.422;2024-03-08T11:38:51;3.47;;;2.55;;
84933;SDS011;75195;56.858;41.422;2024-03-08T11:41:19;2.50;;;1.48;;
84933;SDS011;75195;56.858;41.422;2024-03-08T11:43:47;2.17;;;1.42;;
84933;SDS011;75195;56.858;41.422;2024-03-08T11:46:15;1.95;;;1.30;;
84933;SDS011;75195;56.858;41.422;2024-03-08T11:48:42;2.40;;;1.20;;
84933;SDS011;75195;56.858;41.422;2024-03-08T11:51:13;2.80;;;1.35;;
84933;SDS011;75195;56.858;41.422;2024-03-08T11:56:10;3.00;;;1.73;;
84933;SDS011;75195;56.858;41.422;2024-03-08T11:58:38;2.85;;;1.27;;
84933;SDS011;75195;56.858;41.422;2024-03-08T12:01:07;2.53;;;1.60;;
84933;SDS011;75195;56.858;41.422;2024-03-08T12:03:42;3.83;;;1.50;;
84933;SDS011;75195;56.858;41.422;2024-03-08T12:06:11;2.90;;;1.45;;
84933;SDS011;75195;56.858;41.422;2024-03-08T12:08:39;3.13;;;1.85;;
84933;SDS011;75195;56.858;41.422;2024-03-08T12:11:07;4.05;;;1.50;;
84933;SDS011;75195;56.858;41.422;2024-03-08T12:13:36;2.80;;;1.17;;
84933;SDS011;75195;56.858;41.422;2024-03-08T12:16:03;3.95;;;1.50;;
84933;SDS011;75195;56.858;41.422;2024-03-08T12:18:33;2.45;;;1.17;;
84933;SDS011;75195;56.858;41.422;2024-03-08T12:21:07;3.70;;;1.67;;
84933;SDS011;75195;56.858;41.422;2024-03-08T12:23:34;2.70;;;1.30;;
84933;SDS011;75195;56.858;41.422;2024-03-08T12:26:14;2.08;;;1.00;;
84933;SDS011;75195;56.858;41.422;2024-03-08T12:28:42;3.35;;;1.20;;
84933;SDS011;75195;56.858;41.422;2024-03-08T12:31:14;2.15;;;1.02;;
84933;SDS011;75195;56.858;41.422;2024-03-08T12:33:53;1.67;;;0.88;;
84933;SDS011;75195;56.858;41.422;2024-03-08T12:36:22;2.00;;;0.95;;
84933;SDS011;75195;56.858;41.422;2024-03-08T12:38:49;1.58;;;0.98;;
84933;SDS011;75195;56.858;41.422;2024-03-08T12:41:16;1.42;;;0.80;;
84933;SDS011;75195;56.858;41.422;2024-03-08T12:43:46;2.30;;;1.08;;
84933;SDS011;75195;56.858;41.422;2024-03-08T12:48:52;1.35;;;0.88;;
84933;SDS011;75195;56.858;41.422;2024-03-08T12:51:20;2.33;;;1.15;;
84933;SDS011;75195;56.858;41.422;2024-03-08T12:53:47;3.42;;;1.40;;
84933;SDS011;75195;56.858;41.422;2024-03-08T12:56:15;3.92;;;2.15;;
84933;SDS011;75195;56.858;41.422;2024-03-08T12:58:48;4.88;;;2.67;;
84933;SDS011;75195;56.858;41.422;2024-03-08T13:01:14;6.15;;;3.15;;
84933;SDS011;75195;56.858;41.422;2024-03-08T13:03:41;4.38;;;2.20;;
84933;SDS011;75195;56.858;41.422;2024-03-08T13:06:09;3.00;;;1.92;;
84933;SDS011;75195;56.858;41.422;2024-03-08T13:08:36;2.58;;;1.63;;
84933;SDS011;75195;56.858;41.422;2024-03-08T13:11:06;7.20;;;2.83;;
84933;SDS011;75195;56.858;41.422;2024-03-08T13:13:37;5.85;;;2.67;;
84933;SDS011;75195;56.858;41.422;2024-03-08T13:16:06;9.63;;;3.80;;
84933;SDS011;75195;56.858;41.422;2024-03-08T13:18:36;7.82;;;3.03;;
84933;SDS011;75195;56.858;41.422;2024-03-08T13:21:02;3.97;;;2.08;;
84933;SDS011;75195;56.858;41.422;2024-03-08T13:23:33;2.67;;;1.40;;
84933;SDS011;75195;56.858;41.422;2024-03-08T13:26:08;4.68;;;1.80;;
84933;SDS011;75195;56.858;41.422;2024-03-08T13:28:50;6.25;;;1.80;;
84933;SDS011;75195;56.858;41.422;2024-03-08T13:31:20;3.28;;;1.70;;
84933;SDS011;75195;56.858;41.422;2024-03-08T13:33:47;2.47;;;1.17;;
84933;SDS011;75195;56.858;41.422;2024-03-08T13:36:13;2.78;;;1.20;;
84933;SDS011;75195;56.858;41.422;2024-03-08T13:38:47;3.25;;;1.48;;
84933;SDS011;75195;56.858;41.422;2024-03-08T13:41:15;4.78;;;1.55;;
84933;SDS011;75195;56.858;41.422;2024-03-08T13:43:46;5.18;;;2.58;;
84933;SDS011;75195;56.858;41.422;2024-03-08T13:46:16;3.75;;;2.83;;
84933;SDS011;75195;56.858;41.422;2024-03-08T13:48:43;6.15;;;2.47;;
84933;SDS011;75195;56.858;41.422;2024-03-08T13:51:10;4.10;;;1.90;;
84933;SDS011;75195;56.858;41.422;2024-03-08T13:53:38;2.08;;;1.50;;
84933;SDS011;75195;56.858;41.422;2024-03-08T13:56:06;7.53;;;3.78;;
84933;SDS011;75195;56.858;41.422;2024-03-08T13:58:34;6.63;;;2.85;;
84933;SDS011;75195;56.858;41.422;2024-03-08T14:01:01;4.05;;;2.15;;
84933;SDS011;75195;56.858;41.422;2024-03-08T14:03:29;2.20;;;1.30;;
84933;SDS011;75195;56.858;41.422;2024-03-08T14:05:55;2.90;;;1.40;;
84933;SDS011;75195;56.858;41.422;2024-03-08T14:08:23;3.03;;;1.30;;
84933;SDS011;75195;56.858;41.422;2024-03-08T14:10:50;1.35;;;0.98;;
84933;SDS011;75195;56.858;41.422;2024-03-08T14:13:19;2.97;;;1.45;;
84933;SDS011;75195;56.858;41.422;2024-03-08T14:15:47;5.35;;;1.48;;
84933;SDS011;75195;56.858;41.422;2024-03-08T14:18:14;3.67;;;1.67;;
84933;SDS011;75195;56.858;41.422;2024-03-08T14:20:41;4.25;;;1.58;;
84933;SDS011;75195;56.858;41.422;2024-03-08T14:23:08;2.90;;;1.00;;
84933;SDS011;75195;56.858;41.422;2024-03-08T14:25:34;2.45;;;1.10;;
84933;SDS011;75195;56.858;41.422;2024-03-08T14:28:00;5.80;;;3.67;;
84933;SDS011;75195;56.858;41.422;2024-03-08T14:30:34;5.80;;;2.13;;
84933;SDS011;75195;56.858;41.422;2024-03-08T14:33:02;2.80;;;1.58;;
84933;SDS011;75195;56.858;41.422;2024-03-08T14:35:28;3.47;;;1.65;;
84933;SDS011;75195;56.858;41.422;2024-03-08T14:37:56;3.55;;;1.80;;
84933;SDS011;75195;56.858;41.422;2024-03-08T14:40:26;3.85;;;1.90;;
84933;SDS011;75195;56.858;41.422;2024-03-08T14:42:53;5.97;;;3.45;;
84933;SDS011;75195;56.858;41.422;2024-03-08T14:45:20;12.50;;;5.65;;
84933;SDS011;75195;56.858;41.422;2024-03-08T14:47:46;21.65;;;7.93;;
84933;SDS011;75195;56.858;41.422;2024-03-08T14:50:17;21.95;;;8.60;;
84933;SDS011;75195;56.858;41.422;2024-03-08T14:52:49;18.80;;;7.05;;